El Paso, TX (79926)

3:51 AM MST on January 17, 2017 (GMT -0700)
Manhattan | | Change Station

Elev 4550 ft 31.80 °N, 106.46 °W | Updated 17 seconds ago

Clear
Clear
44.2 °F
Feels Like 41 °F
N
6.3
Wind Variable Wind from NE

Today
High -- | Low -- °F
--% Chance of Precip.
Yesterday
High -- | Low -- °F
Precip. -- in
Pressure 29.97 in
Visibility 10.0 miles
Clouds Few 12000 ft
Few 25000 ft
Windchill 41 °F
Dew Point 39 °F
Humidity 81%
Rainfall 0.00 in
Snow Depth Not available.
7:05 AM 5:26 PM
Waning Gibbous, 73% visible
METAR KELP 170951Z 35007KT 10SM FEW120 FEW250 05/03 A3004 RMK AO2 SLP147 T00500028
Pressure 29.97 in
Visibility 10.0 miles
Clouds Few 12000 ft
Few 25000 ft
Windchill 41 °F
Dew Point 39 °F
Humidity 81%
Rainfall 0.00 in
Snow Depth Not available.
7:05 AM 5:26 PM
Waning Gibbous, 73% visible
METAR KELP 170951Z 35007KT 10SM FEW120 FEW250 05/03 A3004 RMK AO2 SLP147 T00500028

Get Your Daily Forecast Email!

Thanks for signing up!

Be on the lookout for a verification email in your inbox.

You'll start receiving the daily forecast at 8 AM.

×

10-Day Weather Forecast

Almanac

Astronomy

Jan. 17, 2017 Rise Set
Actual Time
Civil Twilight
Nautical Twilight
Astronomical Twilight
Moon
Length of Visible Light
Length of Day
Tomorrow will be .
, % of the Moon is Illuminated

Today's Extremes

State Highs State Lows

Community

WunderPhotos

Upload Photos

1,962,540 photos uploaded!

WunderBlog® & News

Nearby

Air Quality

  Air Quality AQ Index Pollutant
Not available.

Snow Depth

Station Depth Elevation

Earthquake Activity

City Distance Mag. Time & Date
Minimum magnitude displayed is 2.5.

Coastal Water Temperatures

Place Temperature

Stations

Nearby Weather Stations

Station Location Temp. Windchill Dew Point Humidity Wind Precip. Elev Updated Type
                   

Watches & Warnings

There are currently no watches in effect.